sensor_id;sensor_type;location;lat;lon;timestamp;P1;durP1;ratioP1;P2;durP2;ratioP2
43809;SDS011;29440;48.208;11.162;2023-04-25T00:00:17;2.35;;;1.17;;
43809;SDS011;29440;48.208;11.162;2023-04-25T00:02:43;2.22;;;1.30;;
43809;SDS011;29440;48.208;11.162;2023-04-25T00:05:09;1.63;;;0.77;;
43809;SDS011;29440;48.208;11.162;2023-04-25T00:07:35;3.15;;;1.08;;
43809;SDS011;29440;48.208;11.162;2023-04-25T00:10:00;3.13;;;1.25;;
43809;SDS011;29440;48.208;11.162;2023-04-25T00:12:26;1.85;;;1.20;;
43809;SDS011;29440;48.208;11.162;2023-04-25T00:14:53;4.22;;;1.13;;
43809;SDS011;29440;48.208;11.162;2023-04-25T00:17:21;2.10;;;0.90;;
43809;SDS011;29440;48.208;11.162;2023-04-25T00:19:49;1.55;;;1.00;;
43809;SDS011;29440;48.208;11.162;2023-04-25T00:22:15;2.05;;;1.13;;
43809;SDS011;29440;48.208;11.162;2023-04-25T00:24:41;1.98;;;1.25;;
43809;SDS011;29440;48.208;11.162;2023-04-25T00:27:06;2.30;;;1.20;;
43809;SDS011;29440;48.208;11.162;2023-04-25T00:29:32;2.90;;;0.93;;
43809;SDS011;29440;48.208;11.162;2023-04-25T00:31:58;1.90;;;1.10;;
43809;SDS011;29440;48.208;11.162;2023-04-25T00:34:24;2.83;;;1.02;;
43809;SDS011;29440;48.208;11.162;2023-04-25T00:36:50;4.25;;;1.05;;
43809;SDS011;29440;48.208;11.162;2023-04-25T00:39:15;4.47;;;1.42;;
43809;SDS011;29440;48.208;11.162;2023-04-25T00:41:41;2.67;;;1.20;;
43809;SDS011;29440;48.208;11.162;2023-04-25T00:44:08;2.25;;;0.98;;
43809;SDS011;29440;48.208;11.162;2023-04-25T00:46:36;2.28;;;1.25;;
43809;SDS011;29440;48.208;11.162;2023-04-25T00:49:02;1.85;;;1.10;;
43809;SDS011;29440;48.208;11.162;2023-04-25T00:51:27;3.40;;;1.17;;
43809;SDS011;29440;48.208;11.162;2023-04-25T00:53:53;1.77;;;0.98;;
43809;SDS011;29440;48.208;11.162;2023-04-25T00:56:19;3.75;;;0.98;;
43809;SDS011;29440;48.208;11.162;2023-04-25T00:58:46;2.08;;;1.30;;
43809;SDS011;29440;48.208;11.162;2023-04-25T01:01:12;2.03;;;0.98;;
43809;SDS011;29440;48.208;11.162;2023-04-25T01:03:38;2.30;;;1.27;;
43809;SDS011;29440;48.208;11.162;2023-04-25T01:06:06;5.78;;;1.10;;
43809;SDS011;29440;48.208;11.162;2023-04-25T01:08:33;2.80;;;1.05;;
43809;SDS011;29440;48.208;11.162;2023-04-25T01:11:00;2.40;;;1.23;;
43809;SDS011;29440;48.208;11.162;2023-04-25T01:13:25;2.63;;;1.40;;
43809;SDS011;29440;48.208;11.162;2023-04-25T01:15:51;2.35;;;1.10;;
43809;SDS011;29440;48.208;11.162;2023-04-25T01:18:16;2.10;;;1.27;;
43809;SDS011;29440;48.208;11.162;2023-04-25T01:20:43;3.08;;;1.50;;
43809;SDS011;29440;48.208;11.162;2023-04-25T01:23:10;2.35;;;1.40;;
43809;SDS011;29440;48.208;11.162;2023-04-25T01:25:36;2.55;;;1.27;;
43809;SDS011;29440;48.208;11.162;2023-04-25T01:28:03;4.32;;;1.50;;
43809;SDS011;29440;48.208;11.162;2023-04-25T01:30:29;2.15;;;1.25;;
43809;SDS011;29440;48.208;11.162;2023-04-25T01:32:55;3.22;;;1.38;;
43809;SDS011;29440;48.208;11.162;2023-04-25T01:35:22;2.40;;;1.20;;
43809;SDS011;29440;48.208;11.162;2023-04-25T01:37:49;3.10;;;1.35;;
43809;SDS011;29440;48.208;11.162;2023-04-25T01:40:14;4.07;;;1.20;;
43809;SDS011;29440;48.208;11.162;2023-04-25T01:42:41;3.72;;;1.40;;
43809;SDS011;29440;48.208;11.162;2023-04-25T01:45:08;3.78;;;1.20;;
43809;SDS011;29440;48.208;11.162;2023-04-25T01:47:35;2.55;;;1.60;;
43809;SDS011;29440;48.208;11.162;2023-04-25T01:50:02;2.47;;;1.50;;
43809;SDS011;29440;48.208;11.162;2023-04-25T01:52:29;4.45;;;1.30;;
43809;SDS011;29440;48.208;11.162;2023-04-25T01:54:56;2.55;;;1.05;;
43809;SDS011;29440;48.208;11.162;2023-04-25T01:57:22;2.05;;;1.20;;
43809;SDS011;29440;48.208;11.162;2023-04-25T01:59:47;2.13;;;1.33;;
43809;SDS011;29440;48.208;11.162;2023-04-25T02:02:14;2.55;;;1.20;;
43809;SDS011;29440;48.208;11.162;2023-04-25T02:04:39;3.83;;;1.25;;
43809;SDS011;29440;48.208;11.162;2023-04-25T02:07:05;3.33;;;1.10;;
43809;SDS011;29440;48.208;11.162;2023-04-25T02:09:30;2.50;;;1.25;;
43809;SDS011;29440;48.208;11.162;2023-04-25T02:11:56;2.60;;;1.50;;
43809;SDS011;29440;48.208;11.162;2023-04-25T02:14:21;5.63;;;1.52;;
43809;SDS011;29440;48.208;11.162;2023-04-25T02:16:47;3.13;;;1.48;;
43809;SDS011;29440;48.208;11.162;2023-04-25T02:19:12;2.95;;;1.20;;
43809;SDS011;29440;48.208;11.162;2023-04-25T02:21:38;2.83;;;1.50;;
43809;SDS011;29440;48.208;11.162;2023-04-25T02:24:04;3.03;;;1.25;;
43809;SDS011;29440;48.208;11.162;2023-04-25T02:26:29;3.63;;;1.42;;
43809;SDS011;29440;48.208;11.162;2023-04-25T02:28:56;2.25;;;1.40;;
43809;SDS011;29440;48.208;11.162;2023-04-25T02:31:21;2.08;;;1.17;;
43809;SDS011;29440;48.208;11.162;2023-04-25T02:33:47;3.65;;;1.75;;
43809;SDS011;29440;48.208;11.162;2023-04-25T02:36:13;2.33;;;1.60;;
43809;SDS011;29440;48.208;11.162;2023-04-25T02:38:39;1.55;;;1.02;;
43809;SDS011;29440;48.208;11.162;2023-04-25T02:41:04;3.28;;;1.65;;
43809;SDS011;29440;48.208;11.162;2023-04-25T02:43:30;3.35;;;1.50;;
43809;SDS011;29440;48.208;11.162;2023-04-25T02:45:55;4.78;;;1.55;;
43809;SDS011;29440;48.208;11.162;2023-04-25T02:48:21;1.67;;;0.85;;
43809;SDS011;29440;48.208;11.162;2023-04-25T02:50:47;2.67;;;1.20;;
43809;SDS011;29440;48.208;11.162;2023-04-25T02:53:12;2.53;;;1.08;;
43809;SDS011;29440;48.208;11.162;2023-04-25T02:55:40;2.42;;;0.98;;
43809;SDS011;29440;48.208;11.162;2023-04-25T02:58:05;1.50;;;0.90;;
43809;SDS011;29440;48.208;11.162;2023-04-25T03:00:31;2.05;;;0.77;;
43809;SDS011;29440;48.208;11.162;2023-04-25T03:02:57;1.85;;;0.77;;
43809;SDS011;29440;48.208;11.162;2023-04-25T03:05:22;3.78;;;1.30;;
43809;SDS011;29440;48.208;11.162;2023-04-25T03:07:48;2.22;;;0.93;;
43809;SDS011;29440;48.208;11.162;2023-04-25T03:10:13;2.00;;;1.08;;
43809;SDS011;29440;48.208;11.162;2023-04-25T03:12:39;1.83;;;1.00;;
43809;SDS011;29440;48.208;11.162;2023-04-25T03:15:05;2.40;;;1.10;;
43809;SDS011;29440;48.208;11.162;2023-04-25T03:17:31;1.58;;;0.90;;
43809;SDS011;29440;48.208;11.162;2023-04-25T03:19:56;1.65;;;0.70;;
43809;SDS011;29440;48.208;11.162;2023-04-25T03:22:22;1.80;;;0.80;;
43809;SDS011;29440;48.208;11.162;2023-04-25T03:24:49;4.35;;;0.85;;
43809;SDS011;29440;48.208;11.162;2023-04-25T03:27:15;3.45;;;1.05;;
43809;SDS011;29440;48.208;11.162;2023-04-25T03:29:41;4.75;;;0.90;;
43809;SDS011;29440;48.208;11.162;2023-04-25T03:32:06;4.57;;;0.80;;
43809;SDS011;29440;48.208;11.162;2023-04-25T03:34:32;3.33;;;0.70;;
43809;SDS011;29440;48.208;11.162;2023-04-25T03:36:57;3.33;;;0.75;;
43809;SDS011;29440;48.208;11.162;2023-04-25T03:39:23;1.20;;;0.70;;
43809;SDS011;29440;48.208;11.162;2023-04-25T03:41:48;4.82;;;0.80;;
43809;SDS011;29440;48.208;11.162;2023-04-25T03:44:14;2.15;;;0.95;;
43809;SDS011;29440;48.208;11.162;2023-04-25T03:46:40;1.60;;;0.60;;
43809;SDS011;29440;48.208;11.162;2023-04-25T03:49:05;1.27;;;0.80;;
43809;SDS011;29440;48.208;11.162;2023-04-25T03:51:31;1.00;;;0.60;;
43809;SDS011;29440;48.208;11.162;2023-04-25T03:53:57;2.28;;;0.80;;
43809;SDS011;29440;48.208;11.162;2023-04-25T03:56:23;1.63;;;0.68;;
43809;SDS011;29440;48.208;11.162;2023-04-25T03:58:48;2.60;;;1.00;;
43809;SDS011;29440;48.208;11.162;2023-04-25T04:01:14;3.15;;;0.73;;
43809;SDS011;29440;48.208;11.162;2023-04-25T04:03:39;1.10;;;0.70;;
43809;SDS011;29440;48.208;11.162;2023-04-25T04:06:05;1.75;;;0.70;;
43809;SDS011;29440;48.208;11.162;2023-04-25T04:08:32;2.08;;;0.80;;
43809;SDS011;29440;48.208;11.162;2023-04-25T04:10:58;1.48;;;0.70;;
43809;SDS011;29440;48.208;11.162;2023-04-25T04:13:27;2.10;;;1.13;;
43809;SDS011;29440;48.208;11.162;2023-04-25T04:15:53;2.67;;;0.70;;
43809;SDS011;29440;48.208;11.162;2023-04-25T04:18:20;2.17;;;0.77;;
43809;SDS011;29440;48.208;11.162;2023-04-25T04:20:46;3.58;;;1.38;;
43809;SDS011;29440;48.208;11.162;2023-04-25T04:23:11;2.65;;;0.82;;
43809;SDS011;29440;48.208;11.162;2023-04-25T04:28:07;3.38;;;0.90;;
43809;SDS011;29440;48.208;11.162;2023-04-25T04:30:32;1.70;;;0.88;;
43809;SDS011;29440;48.208;11.162;2023-04-25T04:33:01;3.45;;;0.90;;
43809;SDS011;29440;48.208;11.162;2023-04-25T04:35:27;2.92;;;0.90;;
43809;SDS011;29440;48.208;11.162;2023-04-25T04:37:53;2.58;;;0.80;;
43809;SDS011;29440;48.208;11.162;2023-04-25T04:40:19;1.65;;;0.70;;
43809;SDS011;29440;48.208;11.162;2023-04-25T04:42:45;2.50;;;1.00;;
43809;SDS011;29440;48.208;11.162;2023-04-25T04:45:11;1.98;;;0.75;;
43809;SDS011;29440;48.208;11.162;2023-04-25T04:47:37;1.50;;;1.00;;
43809;SDS011;29440;48.208;11.162;2023-04-25T04:50:04;2.60;;;1.15;;
43809;SDS011;29440;48.208;11.162;2023-04-25T04:52:33;3.15;;;1.13;;
43809;SDS011;29440;48.208;11.162;2023-04-25T04:54:59;2.40;;;1.15;;
43809;SDS011;29440;48.208;11.162;2023-04-25T04:57:25;2.38;;;0.85;;
43809;SDS011;29440;48.208;11.162;2023-04-25T04:59:50;2.88;;;1.00;;
43809;SDS011;29440;48.208;11.162;2023-04-25T05:02:16;2.63;;;1.05;;
43809;SDS011;29440;48.208;11.162;2023-04-25T05:04:41;3.60;;;1.80;;
43809;SDS011;29440;48.208;11.162;2023-04-25T05:07:07;3.70;;;1.17;;
43809;SDS011;29440;48.208;11.162;2023-04-25T05:09:33;2.63;;;1.45;;
43809;SDS011;29440;48.208;11.162;2023-04-25T05:11:58;3.45;;;1.38;;
43809;SDS011;29440;48.208;11.162;2023-04-25T05:14:24;2.92;;;1.27;;
43809;SDS011;29440;48.208;11.162;2023-04-25T05:16:49;2.50;;;1.17;;
43809;SDS011;29440;48.208;11.162;2023-04-25T05:19:15;4.40;;;1.40;;
43809;SDS011;29440;48.208;11.162;2023-04-25T05:21:41;5.32;;;1.55;;
43809;SDS011;29440;48.208;11.162;2023-04-25T05:24:08;2.65;;;1.50;;
43809;SDS011;29440;48.208;11.162;2023-04-25T05:26:33;2.95;;;1.13;;
43809;SDS011;29440;48.208;11.162;2023-04-25T05:28:59;4.03;;;1.70;;
43809;SDS011;29440;48.208;11.162;2023-04-25T05:31:25;4.00;;;1.30;;
43809;SDS011;29440;48.208;11.162;2023-04-25T05:33:51;3.50;;;1.30;;
43809;SDS011;29440;48.208;11.162;2023-04-25T05:36:18;6.97;;;1.90;;
43809;SDS011;29440;48.208;11.162;2023-04-25T05:38:44;3.38;;;1.48;;
43809;SDS011;29440;48.208;11.162;2023-04-25T05:41:10;4.57;;;1.33;;
43809;SDS011;29440;48.208;11.162;2023-04-25T05:43:36;3.70;;;1.63;;
43809;SDS011;29440;48.208;11.162;2023-04-25T05:46:01;4.75;;;1.48;;
43809;SDS011;29440;48.208;11.162;2023-04-25T05:48:27;4.07;;;1.60;;
43809;SDS011;29440;48.208;11.162;2023-04-25T05:50:52;4.32;;;1.77;;
43809;SDS011;29440;48.208;11.162;2023-04-25T05:53:18;4.30;;;1.40;;
43809;SDS011;29440;48.208;11.162;2023-04-25T05:55:44;3.33;;;1.20;;
43809;SDS011;29440;48.208;11.162;2023-04-25T05:58:10;3.85;;;1.15;;
43809;SDS011;29440;48.208;11.162;2023-04-25T06:00:36;2.72;;;1.35;;
43809;SDS011;29440;48.208;11.162;2023-04-25T06:03:01;4.07;;;1.58;;
43809;SDS011;29440;48.208;11.162;2023-04-25T06:05:27;4.13;;;1.77;;
43809;SDS011;29440;48.208;11.162;2023-04-25T06:07:52;3.53;;;1.88;;
43809;SDS011;29440;48.208;11.162;2023-04-25T06:10:18;6.53;;;1.77;;
43809;SDS011;29440;48.208;11.162;2023-04-25T06:12:44;4.07;;;1.55;;
43809;SDS011;29440;48.208;11.162;2023-04-25T06:15:09;6.43;;;1.80;;
43809;SDS011;29440;48.208;11.162;2023-04-25T06:17:35;6.90;;;1.60;;
43809;SDS011;29440;48.208;11.162;2023-04-25T06:20:01;2.92;;;1.30;;
43809;SDS011;29440;48.208;11.162;2023-04-25T06:22:27;3.70;;;1.38;;
43809;SDS011;29440;48.208;11.162;2023-04-25T06:24:52;4.70;;;1.50;;
43809;SDS011;29440;48.208;11.162;2023-04-25T06:27:18;2.53;;;1.38;;
43809;SDS011;29440;48.208;11.162;2023-04-25T06:29:43;1.85;;;1.27;;
43809;SDS011;29440;48.208;11.162;2023-04-25T06:32:09;2.10;;;1.30;;
43809;SDS011;29440;48.208;11.162;2023-04-25T06:34:34;3.10;;;1.48;;
43809;SDS011;29440;48.208;11.162;2023-04-25T06:37:00;5.20;;;1.30;;
43809;SDS011;29440;48.208;11.162;2023-04-25T06:39:25;2.47;;;1.23;;
43809;SDS011;29440;48.208;11.162;2023-04-25T06:41:51;3.28;;;1.20;;
43809;SDS011;29440;48.208;11.162;2023-04-25T06:44:16;2.90;;;1.15;;
43809;SDS011;29440;48.208;11.162;2023-04-25T06:46:42;2.83;;;1.35;;
43809;SDS011;29440;48.208;11.162;2023-04-25T06:49:07;2.88;;;1.05;;
43809;SDS011;29440;48.208;11.162;2023-04-25T06:51:33;1.92;;;1.08;;
43809;SDS011;29440;48.208;11.162;2023-04-25T06:53:58;4.95;;;1.30;;
43809;SDS011;29440;48.208;11.162;2023-04-25T06:56:24;2.67;;;1.38;;
43809;SDS011;29440;48.208;11.162;2023-04-25T06:58:50;6.45;;;2.55;;
43809;SDS011;29440;48.208;11.162;2023-04-25T07:01:15;6.60;;;2.10;;
43809;SDS011;29440;48.208;11.162;2023-04-25T07:03:41;6.40;;;2.35;;
43809;SDS011;29440;48.208;11.162;2023-04-25T07:06:07;6.90;;;1.60;;
43809;SDS011;29440;48.208;11.162;2023-04-25T07:08:32;2.28;;;1.20;;
43809;SDS011;29440;48.208;11.162;2023-04-25T07:10:58;5.25;;;1.20;;
43809;SDS011;29440;48.208;11.162;2023-04-25T07:13:23;2.95;;;0.93;;
43809;SDS011;29440;48.208;11.162;2023-04-25T07:15:49;2.45;;;1.00;;
43809;SDS011;29440;48.208;11.162;2023-04-25T07:18:15;2.42;;;1.15;;
43809;SDS011;29440;48.208;11.162;2023-04-25T07:20:40;3.80;;;1.30;;
43809;SDS011;29440;48.208;11.162;2023-04-25T07:23:06;3.10;;;1.20;;
43809;SDS011;29440;48.208;11.162;2023-04-25T07:25:32;1.98;;;0.98;;
43809;SDS011;29440;48.208;11.162;2023-04-25T07:27:57;2.70;;;1.08;;
43809;SDS011;29440;48.208;11.162;2023-04-25T07:30:23;2.40;;;0.80;;
43809;SDS011;29440;48.208;11.162;2023-04-25T07:32:49;1.60;;;0.80;;
43809;SDS011;29440;48.208;11.162;2023-04-25T07:35:15;2.15;;;0.80;;
43809;SDS011;29440;48.208;11.162;2023-04-25T07:37:41;3.95;;;0.70;;
43809;SDS011;29440;48.208;11.162;2023-04-25T07:40:07;1.02;;;0.68;;
43809;SDS011;29440;48.208;11.162;2023-04-25T07:42:34;2.22;;;0.60;;
43809;SDS011;29440;48.208;11.162;2023-04-25T07:45:00;2.20;;;0.75;;
43809;SDS011;29440;48.208;11.162;2023-04-25T07:47:26;2.10;;;0.85;;
43809;SDS011;29440;48.208;11.162;2023-04-25T07:49:52;3.63;;;0.70;;
43809;SDS011;29440;48.208;11.162;2023-04-25T07:52:17;2.42;;;0.77;;
43809;SDS011;29440;48.208;11.162;2023-04-25T07:54:43;2.67;;;0.80;;
43809;SDS011;29440;48.208;11.162;2023-04-25T07:57:08;1.23;;;0.70;;
43809;SDS011;29440;48.208;11.162;2023-04-25T07:59:34;2.78;;;0.47;;
43809;SDS011;29440;48.208;11.162;2023-04-25T08:02:00;1.40;;;0.52;;
43809;SDS011;29440;48.208;11.162;2023-04-25T08:04:26;1.20;;;0.65;;
43809;SDS011;29440;48.208;11.162;2023-04-25T08:06:52;1.00;;;0.70;;
43809;SDS011;29440;48.208;11.162;2023-04-25T08:09:18;1.27;;;0.50;;
43809;SDS011;29440;48.208;11.162;2023-04-25T08:11:44;4.10;;;0.70;;
43809;SDS011;29440;48.208;11.162;2023-04-25T08:14:10;1.30;;;0.60;;
43809;SDS011;29440;48.208;11.162;2023-04-25T08:16:36;1.88;;;0.60;;
43809;SDS011;29440;48.208;11.162;2023-04-25T08:19:02;3.25;;;1.00;;
43809;SDS011;29440;48.208;11.162;2023-04-25T08:21:28;1.13;;;0.50;;
43809;SDS011;29440;48.208;11.162;2023-04-25T08:23:53;2.13;;;0.60;;
43809;SDS011;29440;48.208;11.162;2023-04-25T08:26:19;1.50;;;0.68;;
43809;SDS011;29440;48.208;11.162;2023-04-25T08:28:45;1.65;;;0.60;;
43809;SDS011;29440;48.208;11.162;2023-04-25T08:31:11;0.80;;;0.47;;
43809;SDS011;29440;48.208;11.162;2023-04-25T08:33:37;1.98;;;0.90;;
43809;SDS011;29440;48.208;11.162;2023-04-25T08:36:02;2.85;;;0.70;;
43809;SDS011;29440;48.208;11.162;2023-04-25T08:38:28;1.30;;;0.85;;
43809;SDS011;29440;48.208;11.162;2023-04-25T08:40:54;3.92;;;0.90;;
43809;SDS011;29440;48.208;11.162;2023-04-25T08:43:21;2.55;;;1.23;;
43809;SDS011;29440;48.208;11.162;2023-04-25T08:45:49;2.45;;;0.80;;
43809;SDS011;29440;48.208;11.162;2023-04-25T08:48:19;1.67;;;0.68;;
43809;SDS011;29440;48.208;11.162;2023-04-25T08:50:45;1.27;;;0.80;;
43809;SDS011;29440;48.208;11.162;2023-04-25T08:53:16;4.38;;;1.00;;
43809;SDS011;29440;48.208;11.162;2023-04-25T08:55:45;1.88;;;0.88;;
43809;SDS011;29440;48.208;11.162;2023-04-25T08:58:11;2.83;;;0.70;;
43809;SDS011;29440;48.208;11.162;2023-04-25T09:00:38;2.10;;;0.73;;
43809;SDS011;29440;48.208;11.162;2023-04-25T09:03:03;2.33;;;0.80;;
43809;SDS011;29440;48.208;11.162;2023-04-25T09:05:29;1.98;;;0.70;;
43809;SDS011;29440;48.208;11.162;2023-04-25T09:07:56;1.13;;;0.55;;
43809;SDS011;29440;48.208;11.162;2023-04-25T09:10:23;1.48;;;0.73;;
43809;SDS011;29440;48.208;11.162;2023-04-25T09:15:52;1.58;;;0.75;;
43809;SDS011;29440;48.208;11.162;2023-04-25T09:20:49;2.60;;;0.70;;
43809;SDS011;29440;48.208;11.162;2023-04-25T09:23:14;3.95;;;0.80;;
43809;SDS011;29440;48.208;11.162;2023-04-25T09:25:40;2.60;;;0.77;;
43809;SDS011;29440;48.208;11.162;2023-04-25T09:28:07;1.40;;;0.60;;
43809;SDS011;29440;48.208;11.162;2023-04-25T09:30:34;3.80;;;0.63;;
43809;SDS011;29440;48.208;11.162;2023-04-25T09:33:04;1.45;;;0.70;;
43809;SDS011;29440;48.208;11.162;2023-04-25T09:35:34;2.40;;;0.95;;
43809;SDS011;29440;48.208;11.162;2023-04-25T09:38:13;3.85;;;0.90;;
43809;SDS011;29440;48.208;11.162;2023-04-25T09:40:43;1.42;;;0.73;;
43809;SDS011;29440;48.208;11.162;2023-04-25T09:43:31;1.38;;;0.65;;
43809;SDS011;29440;48.208;11.162;2023-04-25T09:45:55;2.47;;;0.55;;
43809;SDS011;29440;48.208;11.162;2023-04-25T09:48:25;1.88;;;0.70;;
43809;SDS011;29440;48.208;11.162;2023-04-25T09:51:13;2.67;;;0.90;;
43809;SDS011;29440;48.208;11.162;2023-04-25T09:53:39;3.40;;;0.63;;
43809;SDS011;29440;48.208;11.162;2023-04-25T09:56:07;2.00;;;1.00;;
43809;SDS011;29440;48.208;11.162;2023-04-25T09:58:34;1.75;;;0.60;;
43809;SDS011;29440;48.208;11.162;2023-04-25T10:01:05;4.32;;;0.70;;
43809;SDS011;29440;48.208;11.162;2023-04-25T10:03:33;4.80;;;0.80;;
43809;SDS011;29440;48.208;11.162;2023-04-25T10:06:01;1.60;;;0.80;;
43809;SDS011;29440;48.208;11.162;2023-04-25T10:08:33;3.42;;;1.15;;
43809;SDS011;29440;48.208;11.162;2023-04-25T10:11:02;2.45;;;1.02;;
43809;SDS011;29440;48.208;11.162;2023-04-25T10:13:32;1.80;;;0.77;;
43809;SDS011;29440;48.208;11.162;2023-04-25T10:15:59;1.75;;;0.82;;
43809;SDS011;29440;48.208;11.162;2023-04-25T10:18:26;1.65;;;0.80;;
43809;SDS011;29440;48.208;11.162;2023-04-25T10:20:56;3.33;;;0.80;;
43809;SDS011;29440;48.208;11.162;2023-04-25T10:23:30;1.45;;;0.70;;
43809;SDS011;29440;48.208;11.162;2023-04-25T10:25:56;2.47;;;1.23;;
43809;SDS011;29440;48.208;11.162;2023-04-25T10:28:23;1.63;;;0.70;;
43809;SDS011;29440;48.208;11.162;2023-04-25T10:31:04;0.77;;;0.52;;
43809;SDS011;29440;48.208;11.162;2023-04-25T10:36:21;1.38;;;0.50;;
43809;SDS011;29440;48.208;11.162;2023-04-25T10:38:47;1.17;;;0.50;;
43809;SDS011;29440;48.208;11.162;2023-04-25T10:41:18;0.70;;;0.45;;
43809;SDS011;29440;48.208;11.162;2023-04-25T10:43:45;0.85;;;0.50;;
43809;SDS011;29440;48.208;11.162;2023-04-25T10:46:22;1.20;;;0.50;;
43809;SDS011;29440;48.208;11.162;2023-04-25T10:48:52;1.77;;;0.50;;
43809;SDS011;29440;48.208;11.162;2023-04-25T10:51:27;1.33;;;0.50;;
43809;SDS011;29440;48.208;11.162;2023-04-25T10:53:58;1.23;;;0.40;;
43809;SDS011;29440;48.208;11.162;2023-04-25T10:56:27;0.70;;;0.40;;
43809;SDS011;29440;48.208;11.162;2023-04-25T10:59:08;1.58;;;0.45;;
43809;SDS011;29440;48.208;11.162;2023-04-25T11:01:44;2.97;;;1.00;;
43809;SDS011;29440;48.208;11.162;2023-04-25T11:04:21;2.65;;;0.63;;
43809;SDS011;29440;48.208;11.162;2023-04-25T11:09:27;1.25;;;0.70;;
43809;SDS011;29440;48.208;11.162;2023-04-25T11:11:54;1.77;;;0.63;;
43809;SDS011;29440;48.208;11.162;2023-04-25T11:14:20;1.83;;;0.75;;
43809;SDS011;29440;48.208;11.162;2023-04-25T11:16:46;1.15;;;0.63;;
43809;SDS011;29440;48.208;11.162;2023-04-25T11:19:12;2.65;;;0.90;;
43809;SDS011;29440;48.208;11.162;2023-04-25T11:21:38;0.90;;;0.57;;
43809;SDS011;29440;48.208;11.162;2023-04-25T11:24:03;2.78;;;0.70;;
43809;SDS011;29440;48.208;11.162;2023-04-25T11:26:29;1.35;;;0.70;;
43809;SDS011;29440;48.208;11.162;2023-04-25T11:28:59;1.33;;;0.57;;
43809;SDS011;29440;48.208;11.162;2023-04-25T11:31:28;2.47;;;0.70;;
43809;SDS011;29440;48.208;11.162;2023-04-25T11:33:56;1.92;;;0.60;;
43809;SDS011;29440;48.208;11.162;2023-04-25T11:36:23;1.50;;;0.60;;
43809;SDS011;29440;48.208;11.162;2023-04-25T11:38:52;1.23;;;0.80;;
43809;SDS011;29440;48.208;11.162;2023-04-25T11:41:19;0.50;;;0.50;;
43809;SDS011;29440;48.208;11.162;2023-04-25T11:43:47;0.80;;;0.40;;
43809;SDS011;29440;48.208;11.162;2023-04-25T11:46:15;1.42;;;0.50;;
43809;SDS011;29440;48.208;11.162;2023-04-25T11:48:41;1.23;;;0.57;;
43809;SDS011;29440;48.208;11.162;2023-04-25T11:51:08;2.58;;;0.70;;
43809;SDS011;29440;48.208;11.162;2023-04-25T11:53:34;0.90;;;0.60;;
43809;SDS011;29440;48.208;11.162;2023-04-25T11:56:01;1.88;;;0.60;;
43809;SDS011;29440;48.208;11.162;2023-04-25T11:58:27;1.15;;;0.60;;
43809;SDS011;29440;48.208;11.162;2023-04-25T12:00:53;1.17;;;0.50;;
43809;SDS011;29440;48.208;11.162;2023-04-25T12:03:18;1.55;;;0.70;;
43809;SDS011;29440;48.208;11.162;2023-04-25T12:05:45;1.63;;;0.60;;
43809;SDS011;29440;48.208;11.162;2023-04-25T12:08:14;2.25;;;0.60;;
43809;SDS011;29440;48.208;11.162;2023-04-25T12:10:41;1.50;;;0.73;;
43809;SDS011;29440;48.208;11.162;2023-04-25T12:13:18;3.40;;;1.23;;
43809;SDS011;29440;48.208;11.162;2023-04-25T12:15:45;2.85;;;1.13;;
43809;SDS011;29440;48.208;11.162;2023-04-25T12:18:11;0.90;;;0.50;;
43809;SDS011;29440;48.208;11.162;2023-04-25T12:20:36;1.52;;;0.50;;
43809;SDS011;29440;48.208;11.162;2023-04-25T12:23:05;1.60;;;0.50;;
43809;SDS011;29440;48.208;11.162;2023-04-25T12:25:39;0.75;;;0.50;;
43809;SDS011;29440;48.208;11.162;2023-04-25T12:28:13;0.70;;;0.38;;
43809;SDS011;29440;48.208;11.162;2023-04-25T12:33:19;0.70;;;0.40;;
43809;SDS011;29440;48.208;11.162;2023-04-25T12:35:46;0.60;;;0.40;;
43809;SDS011;29440;48.208;11.162;2023-04-25T12:38:20;1.00;;;0.40;;
43809;SDS011;29440;48.208;11.162;2023-04-25T12:40:46;0.50;;;0.35;;
43809;SDS011;29440;48.208;11.162;2023-04-25T12:43:12;0.90;;;0.40;;
43809;SDS011;29440;48.208;11.162;2023-04-25T12:45:37;0.47;;;0.38;;
43809;SDS011;29440;48.208;11.162;2023-04-25T12:48:03;0.90;;;0.45;;
43809;SDS011;29440;48.208;11.162;2023-04-25T12:50:28;0.50;;;0.35;;
43809;SDS011;29440;48.208;11.162;2023-04-25T12:52:54;2.92;;;0.30;;
43809;SDS011;29440;48.208;11.162;2023-04-25T12:55:20;0.82;;;0.50;;
43809;SDS011;29440;48.208;11.162;2023-04-25T12:57:45;0.47;;;0.38;;
43809;SDS011;29440;48.208;11.162;2023-04-25T13:00:11;0.60;;;0.32;;
43809;SDS011;29440;48.208;11.162;2023-04-25T13:02:39;0.43;;;0.35;;
43809;SDS011;29440;48.208;11.162;2023-04-25T13:05:05;0.30;;;0.28;;
43809;SDS011;29440;48.208;11.162;2023-04-25T13:07:31;0.50;;;0.30;;
43809;SDS011;29440;48.208;11.162;2023-04-25T13:09:57;0.40;;;0.38;;
43809;SDS011;29440;48.208;11.162;2023-04-25T13:12:22;0.40;;;0.30;;
43809;SDS011;29440;48.208;11.162;2023-04-25T13:14:48;0.52;;;0.30;;
43809;SDS011;29440;48.208;11.162;2023-04-25T13:17:13;0.38;;;0.28;;
43809;SDS011;29440;48.208;11.162;2023-04-25T13:19:39;0.50;;;0.38;;
43809;SDS011;29440;48.208;11.162;2023-04-25T13:22:04;0.75;;;0.50;;
43809;SDS011;29440;48.208;11.162;2023-04-25T13:24:30;0.63;;;0.30;;
43809;SDS011;29440;48.208;11.162;2023-04-25T13:26:55;1.35;;;0.38;;
43809;SDS011;29440;48.208;11.162;2023-04-25T13:29:21;0.20;;;0.20;;
43809;SDS011;29440;48.208;11.162;2023-04-25T13:31:46;1.55;;;0.30;;
43809;SDS011;29440;48.208;11.162;2023-04-25T13:34:12;0.80;;;0.50;;
43809;SDS011;29440;48.208;11.162;2023-04-25T13:36:37;0.68;;;0.35;;
43809;SDS011;29440;48.208;11.162;2023-04-25T13:39:04;0.40;;;0.30;;
43809;SDS011;29440;48.208;11.162;2023-04-25T13:41:30;0.40;;;0.30;;
43809;SDS011;29440;48.208;11.162;2023-04-25T13:43:55;2.85;;;0.40;;
43809;SDS011;29440;48.208;11.162;2023-04-25T13:46:21;0.95;;;0.40;;
43809;SDS011;29440;48.208;11.162;2023-04-25T13:48:47;0.90;;;0.40;;
43809;SDS011;29440;48.208;11.162;2023-04-25T13:51:14;0.40;;;0.32;;
43809;SDS011;29440;48.208;11.162;2023-04-25T13:53:40;0.77;;;0.50;;
43809;SDS011;29440;48.208;11.162;2023-04-25T13:56:06;0.45;;;0.30;;
43809;SDS011;29440;48.208;11.162;2023-04-25T13:58:32;1.55;;;0.63;;
43809;SDS011;29440;48.208;11.162;2023-04-25T14:00:58;1.98;;;0.40;;
43809;SDS011;29440;48.208;11.162;2023-04-25T14:03:26;0.43;;;0.30;;
43809;SDS011;29440;48.208;11.162;2023-04-25T14:05:52;1.13;;;0.50;;
43809;SDS011;29440;48.208;11.162;2023-04-25T14:08:17;1.20;;;0.40;;
43809;SDS011;29440;48.208;11.162;2023-04-25T14:10:43;1.38;;;0.60;;
43809;SDS011;29440;48.208;11.162;2023-04-25T14:13:08;1.27;;;0.40;;
43809;SDS011;29440;48.208;11.162;2023-04-25T14:15:34;0.68;;;0.40;;
43809;SDS011;29440;48.208;11.162;2023-04-25T14:18:00;1.50;;;0.50;;
43809;SDS011;29440;48.208;11.162;2023-04-25T14:20:26;0.88;;;0.50;;
43809;SDS011;29440;48.208;11.162;2023-04-25T14:22:52;1.77;;;0.52;;
43809;SDS011;29440;48.208;11.162;2023-04-25T14:25:19;1.02;;;0.40;;
43809;SDS011;29440;48.208;11.162;2023-04-25T14:27:45;0.68;;;0.50;;
43809;SDS011;29440;48.208;11.162;2023-04-25T14:30:14;0.60;;;0.40;;
43809;SDS011;29440;48.208;11.162;2023-04-25T14:32:40;0.68;;;0.40;;
43809;SDS011;29440;48.208;11.162;2023-04-25T14:35:06;0.95;;;0.60;;
43809;SDS011;29440;48.208;11.162;2023-04-25T14:37:32;1.00;;;0.60;;
43809;SDS011;29440;48.208;11.162;2023-04-25T14:39:58;1.38;;;0.65;;
43809;SDS011;29440;48.208;11.162;2023-04-25T14:42:23;1.00;;;0.50;;
43809;SDS011;29440;48.208;11.162;2023-04-25T14:44:49;1.70;;;0.85;;